Estación Meteorológica Peña el Pijo (Robertgarden) [ 04/19/21 04:53:32 CEST ]

Fecha Hora Presion(HPa) Temp (°C) Humedad % Rocio (°C) Viento ( m/s) Direccion Lluvia 1Hora(mm) Lluvia 24H(mm) LLuvia Total(mm)
2021-Apr-03 01:08:59 1005.400 10.5 68 4.8 - N     89.61
2021-Apr-03 02:09:27 1005.000 9.3 72 4.5 - N     89.61
2021-Apr-03 03:09:36 1004.400 7.6 77 3.8 - N     89.61
2021-Apr-03 04:10:11 1004.000 6.1 81 3.1 - N     89.61
2021-Apr-03 05:10:19 1003.900 5.3 83 2.6 - N     89.61
2021-Apr-03 06:10:01 1003.600 4.4 84 1.9 - N     89.61
2021-Apr-03 07:09:18 1003.500 3.8 85 1.5 - N     89.61
2021-Apr-03 08:09:39 1003.900 3.0 86 0.9 - N     89.61
2021-Apr-03 09:09:49 1003.800 15.3 61 7.8 - N     89.61
2021-Apr-03 10:09:54 1003.400 21.8 43 8.6 - N     89.61
2021-Apr-03 11:09:43 1003.400 24.9 35 8.3 - N     89.61
2021-Apr-03 12:09:18 1003.300 17.3 43 4.5 - N     89.61
2021-Apr-03 13:09:35 1002.600 16.1 46 4.4 - N     89.61
2021-Apr-03 14:09:33 1002.500 11.3 75 7.0 - N     89.61
2021-Apr-03 15:09:32 1002.200 14.9 55 5.9 - N     89.61
2021-Apr-03 16:09:44 1002.600 11.6 65 5.2 - N     89.61
2021-Apr-03 17:09:46 1002.100 13.3 67 7.3 - N     89.61
2021-Apr-03 18:09:16 1001.700 16.8 50 6.3 - N     89.61
2021-Apr-03 19:09:28 1001.900 16.1 47 4.7 - N     89.61
2021-Apr-03 20:09:18 1002.100 12.2 59 4.4 - N     89.61
2021-Apr-03 21:09:21 1002.600 10.2 70 5.0 - N     89.61
2021-Apr-03 22:09:32 1003.200 8.3 77 4.5 - N     89.61
2021-Apr-03 23:09:55 1003.500 7.2 80 4.0 - N     89.61

Temperatura Máxima:24°    Temperatura Mínima:
Presión Máxima:1005.400 Hpa    Presión Mínima:1001.700 Hpa


Volver